sensor_id;sensor_type;location;lat;lon;timestamp;P1;durP1;ratioP1;P2;durP2;ratioP2
66437;SDS011;54537;47.972;11.662;2023-04-19T00:00:01;10.10;;;3.80;;
66437;SDS011;54537;47.972;11.662;2023-04-19T00:02:29;11.43;;;4.00;;
66437;SDS011;54537;47.972;11.662;2023-04-19T00:04:55;10.60;;;4.63;;
66437;SDS011;54537;47.972;11.662;2023-04-19T00:07:21;7.72;;;3.75;;
66437;SDS011;54537;47.972;11.662;2023-04-19T00:09:48;9.77;;;4.88;;
66437;SDS011;54537;47.972;11.662;2023-04-19T00:12:16;9.13;;;4.35;;
66437;SDS011;54537;47.972;11.662;2023-04-19T00:14:42;8.90;;;4.15;;
66437;SDS011;54537;47.972;11.662;2023-04-19T00:17:09;8.95;;;4.10;;
66437;SDS011;54537;47.972;11.662;2023-04-19T00:19:36;8.45;;;3.88;;
66437;SDS011;54537;47.972;11.662;2023-04-19T00:22:03;8.90;;;4.22;;
66437;SDS011;54537;47.972;11.662;2023-04-19T00:24:29;9.85;;;4.70;;
66437;SDS011;54537;47.972;11.662;2023-04-19T00:26:56;10.75;;;4.63;;
66437;SDS011;54537;47.972;11.662;2023-04-19T00:29:24;10.27;;;4.25;;
66437;SDS011;54537;47.972;11.662;2023-04-19T00:31:50;11.30;;;5.03;;
66437;SDS011;54537;47.972;11.662;2023-04-19T00:34:18;11.45;;;5.18;;
66437;SDS011;54537;47.972;11.662;2023-04-19T00:36:44;12.43;;;5.07;;
66437;SDS011;54537;47.972;11.662;2023-04-19T00:39:10;12.90;;;5.57;;
66437;SDS011;54537;47.972;11.662;2023-04-19T00:41:37;13.63;;;5.80;;
66437;SDS011;54537;47.972;11.662;2023-04-19T00:44:04;12.00;;;5.25;;
66437;SDS011;54537;47.972;11.662;2023-04-19T00:46:32;12.20;;;4.57;;
66437;SDS011;54537;47.972;11.662;2023-04-19T00:48:58;11.18;;;5.22;;
66437;SDS011;54537;47.972;11.662;2023-04-19T00:51:25;12.80;;;5.10;;
66437;SDS011;54537;47.972;11.662;2023-04-19T00:53:51;14.05;;;5.78;;
66437;SDS011;54537;47.972;11.662;2023-04-19T00:56:18;14.23;;;5.80;;
66437;SDS011;54537;47.972;11.662;2023-04-19T00:58:47;18.55;;;7.13;;
66437;SDS011;54537;47.972;11.662;2023-04-19T01:01:14;18.25;;;7.60;;
66437;SDS011;54537;47.972;11.662;2023-04-19T01:03:42;19.67;;;7.43;;
66437;SDS011;54537;47.972;11.662;2023-04-19T01:06:11;20.92;;;9.02;;
66437;SDS011;54537;47.972;11.662;2023-04-19T01:08:37;24.98;;;9.15;;
66437;SDS011;54537;47.972;11.662;2023-04-19T01:11:04;27.17;;;9.98;;
66437;SDS011;54537;47.972;11.662;2023-04-19T01:13:32;24.63;;;9.15;;
66437;SDS011;54537;47.972;11.662;2023-04-19T01:15:58;26.50;;;10.10;;
66437;SDS011;54537;47.972;11.662;2023-04-19T01:18:25;27.38;;;9.77;;
66437;SDS011;54537;47.972;11.662;2023-04-19T01:20:58;23.85;;;9.80;;
66437;SDS011;54537;47.972;11.662;2023-04-19T01:23:26;23.17;;;9.77;;
66437;SDS011;54537;47.972;11.662;2023-04-19T01:25:52;27.05;;;9.85;;
66437;SDS011;54537;47.972;11.662;2023-04-19T01:28:19;22.75;;;9.75;;
66437;SDS011;54537;47.972;11.662;2023-04-19T01:30:45;27.00;;;10.32;;
66437;SDS011;54537;47.972;11.662;2023-04-19T01:33:14;24.73;;;9.98;;
66437;SDS011;54537;47.972;11.662;2023-04-19T01:35:41;24.13;;;9.95;;
66437;SDS011;54537;47.972;11.662;2023-04-19T01:38:07;28.83;;;11.35;;
66437;SDS011;54537;47.972;11.662;2023-04-19T01:40:35;26.63;;;9.73;;
66437;SDS011;54537;47.972;11.662;2023-04-19T01:43:02;27.50;;;11.07;;
66437;SDS011;54537;47.972;11.662;2023-04-19T01:45:28;30.80;;;11.55;;
66437;SDS011;54537;47.972;11.662;2023-04-19T01:47:57;26.10;;;9.90;;
66437;SDS011;54537;47.972;11.662;2023-04-19T01:50:23;25.42;;;10.88;;
66437;SDS011;54537;47.972;11.662;2023-04-19T01:52:51;24.88;;;10.13;;
66437;SDS011;54537;47.972;11.662;2023-04-19T01:55:17;25.90;;;10.02;;
66437;SDS011;54537;47.972;11.662;2023-04-19T01:57:45;28.10;;;10.68;;
66437;SDS011;54537;47.972;11.662;2023-04-19T02:00:12;26.45;;;9.88;;
66437;SDS011;54537;47.972;11.662;2023-04-19T02:02:39;29.70;;;10.70;;
66437;SDS011;54537;47.972;11.662;2023-04-19T02:05:06;27.20;;;10.80;;
66437;SDS011;54537;47.972;11.662;2023-04-19T02:07:33;29.45;;;11.02;;
66437;SDS011;54537;47.972;11.662;2023-04-19T02:10:00;23.35;;;9.77;;
66437;SDS011;54537;47.972;11.662;2023-04-19T02:12:26;32.75;;;11.25;;
66437;SDS011;54537;47.972;11.662;2023-04-19T02:14:54;27.60;;;10.40;;
66437;SDS011;54537;47.972;11.662;2023-04-19T02:17:22;29.90;;;10.85;;
66437;SDS011;54537;47.972;11.662;2023-04-19T02:19:48;25.13;;;10.52;;
66437;SDS011;54537;47.972;11.662;2023-04-19T02:22:15;28.45;;;10.57;;
66437;SDS011;54537;47.972;11.662;2023-04-19T02:24:41;26.23;;;9.85;;
66437;SDS011;54537;47.972;11.662;2023-04-19T02:27:08;23.15;;;9.88;;
66437;SDS011;54537;47.972;11.662;2023-04-19T02:29:36;22.70;;;9.63;;
66437;SDS011;54537;47.972;11.662;2023-04-19T02:32:04;24.88;;;9.75;;
66437;SDS011;54537;47.972;11.662;2023-04-19T02:34:31;24.70;;;9.60;;
66437;SDS011;54537;47.972;11.662;2023-04-19T02:36:57;26.45;;;10.32;;
66437;SDS011;54537;47.972;11.662;2023-04-19T02:39:24;23.80;;;9.82;;
66437;SDS011;54537;47.972;11.662;2023-04-19T02:41:51;26.50;;;10.10;;
66437;SDS011;54537;47.972;11.662;2023-04-19T02:44:17;27.50;;;10.13;;
66437;SDS011;54537;47.972;11.662;2023-04-19T02:46:47;25.30;;;9.95;;
66437;SDS011;54537;47.972;11.662;2023-04-19T02:49:15;26.77;;;9.43;;
66437;SDS011;54537;47.972;11.662;2023-04-19T02:51:41;26.75;;;9.82;;
66437;SDS011;54537;47.972;11.662;2023-04-19T02:54:08;23.77;;;9.80;;
66437;SDS011;54537;47.972;11.662;2023-04-19T02:56:34;26.17;;;10.93;;
66437;SDS011;54537;47.972;11.662;2023-04-19T02:59:01;23.70;;;9.93;;
66437;SDS011;54537;47.972;11.662;2023-04-19T03:01:28;23.73;;;9.35;;
66437;SDS011;54537;47.972;11.662;2023-04-19T03:03:55;24.10;;;8.95;;
66437;SDS011;54537;47.972;11.662;2023-04-19T03:06:23;24.77;;;10.18;;
66437;SDS011;54537;47.972;11.662;2023-04-19T03:08:50;25.98;;;9.73;;
66437;SDS011;54537;47.972;11.662;2023-04-19T03:11:16;22.70;;;9.00;;
66437;SDS011;54537;47.972;11.662;2023-04-19T03:13:43;21.48;;;8.75;;
66437;SDS011;54537;47.972;11.662;2023-04-19T03:16:10;22.58;;;9.50;;
66437;SDS011;54537;47.972;11.662;2023-04-19T03:18:37;22.33;;;9.23;;
66437;SDS011;54537;47.972;11.662;2023-04-19T03:21:03;25.15;;;10.20;;
66437;SDS011;54537;47.972;11.662;2023-04-19T03:23:34;24.45;;;10.02;;
66437;SDS011;54537;47.972;11.662;2023-04-19T03:26:02;23.73;;;9.50;;
66437;SDS011;54537;47.972;11.662;2023-04-19T03:28:28;23.63;;;9.43;;
66437;SDS011;54537;47.972;11.662;2023-04-19T03:30:55;26.27;;;9.63;;
66437;SDS011;54537;47.972;11.662;2023-04-19T03:33:21;27.90;;;9.85;;
66437;SDS011;54537;47.972;11.662;2023-04-19T03:35:48;25.83;;;9.98;;
66437;SDS011;54537;47.972;11.662;2023-04-19T03:38:15;27.48;;;10.40;;
66437;SDS011;54537;47.972;11.662;2023-04-19T03:40:43;23.98;;;9.95;;
66437;SDS011;54537;47.972;11.662;2023-04-19T03:43:09;27.00;;;10.43;;
66437;SDS011;54537;47.972;11.662;2023-04-19T03:45:36;24.67;;;9.63;;
66437;SDS011;54537;47.972;11.662;2023-04-19T03:48:02;28.15;;;10.65;;
66437;SDS011;54537;47.972;11.662;2023-04-19T03:50:29;28.98;;;10.10;;
66437;SDS011;54537;47.972;11.662;2023-04-19T03:52:56;30.95;;;10.32;;
66437;SDS011;54537;47.972;11.662;2023-04-19T03:55:22;28.15;;;10.43;;
66437;SDS011;54537;47.972;11.662;2023-04-19T03:57:50;27.48;;;10.10;;
66437;SDS011;54537;47.972;11.662;2023-04-19T04:00:16;26.48;;;10.15;;
66437;SDS011;54537;47.972;11.662;2023-04-19T04:02:43;25.58;;;10.18;;
66437;SDS011;54537;47.972;11.662;2023-04-19T04:05:10;29.95;;;10.80;;
66437;SDS011;54537;47.972;11.662;2023-04-19T04:07:36;26.70;;;10.00;;
66437;SDS011;54537;47.972;11.662;2023-04-19T04:10:03;31.00;;;10.90;;
66437;SDS011;54537;47.972;11.662;2023-04-19T04:12:30;29.08;;;10.85;;
66437;SDS011;54537;47.972;11.662;2023-04-19T04:14:58;32.05;;;11.68;;
66437;SDS011;54537;47.972;11.662;2023-04-19T04:17:24;29.48;;;10.18;;
66437;SDS011;54537;47.972;11.662;2023-04-19T04:19:51;31.60;;;11.57;;
66437;SDS011;54537;47.972;11.662;2023-04-19T04:22:17;35.40;;;11.15;;
66437;SDS011;54537;47.972;11.662;2023-04-19T04:24:44;32.67;;;11.65;;
66437;SDS011;54537;47.972;11.662;2023-04-19T04:27:11;32.22;;;11.50;;
66437;SDS011;54537;47.972;11.662;2023-04-19T04:29:38;28.88;;;11.50;;
66437;SDS011;54537;47.972;11.662;2023-04-19T04:32:07;32.10;;;11.38;;
66437;SDS011;54537;47.972;11.662;2023-04-19T04:34:34;37.10;;;12.07;;
66437;SDS011;54537;47.972;11.662;2023-04-19T04:37:01;35.58;;;13.13;;
66437;SDS011;54537;47.972;11.662;2023-04-19T04:39:28;34.03;;;11.95;;
66437;SDS011;54537;47.972;11.662;2023-04-19T04:41:55;33.53;;;12.68;;
66437;SDS011;54537;47.972;11.662;2023-04-19T04:44:23;32.60;;;11.50;;
66437;SDS011;54537;47.972;11.662;2023-04-19T04:46:50;33.55;;;11.70;;
66437;SDS011;54537;47.972;11.662;2023-04-19T04:49:17;33.40;;;11.82;;
66437;SDS011;54537;47.972;11.662;2023-04-19T04:51:44;38.38;;;13.25;;
66437;SDS011;54537;47.972;11.662;2023-04-19T04:54:10;39.83;;;13.52;;
66437;SDS011;54537;47.972;11.662;2023-04-19T04:56:37;38.13;;;12.50;;
66437;SDS011;54537;47.972;11.662;2023-04-19T04:59:03;36.58;;;13.45;;
66437;SDS011;54537;47.972;11.662;2023-04-19T05:01:31;39.08;;;13.50;;
66437;SDS011;54537;47.972;11.662;2023-04-19T05:03:58;40.75;;;13.20;;
66437;SDS011;54537;47.972;11.662;2023-04-19T05:06:26;34.58;;;12.93;;
66437;SDS011;54537;47.972;11.662;2023-04-19T05:08:52;36.33;;;12.27;;
66437;SDS011;54537;47.972;11.662;2023-04-19T05:11:19;34.72;;;12.98;;
66437;SDS011;54537;47.972;11.662;2023-04-19T05:13:45;35.25;;;13.05;;
66437;SDS011;54537;47.972;11.662;2023-04-19T05:16:12;37.42;;;13.80;;
66437;SDS011;54537;47.972;11.662;2023-04-19T05:18:38;33.92;;;12.85;;
66437;SDS011;54537;47.972;11.662;2023-04-19T05:21:05;34.78;;;12.88;;
66437;SDS011;54537;47.972;11.662;2023-04-19T05:23:35;38.13;;;13.77;;
66437;SDS011;54537;47.972;11.662;2023-04-19T05:26:02;37.60;;;13.68;;
66437;SDS011;54537;47.972;11.662;2023-04-19T05:28:28;33.03;;;13.68;;
66437;SDS011;54537;47.972;11.662;2023-04-19T05:30:55;36.25;;;13.05;;
66437;SDS011;54537;47.972;11.662;2023-04-19T05:33:21;29.52;;;12.27;;
66437;SDS011;54537;47.972;11.662;2023-04-19T05:35:48;30.13;;;11.77;;
66437;SDS011;54537;47.972;11.662;2023-04-19T05:38:14;29.38;;;11.38;;
66437;SDS011;54537;47.972;11.662;2023-04-19T05:40:44;30.73;;;11.95;;
66437;SDS011;54537;47.972;11.662;2023-04-19T05:43:10;30.23;;;12.45;;
66437;SDS011;54537;47.972;11.662;2023-04-19T05:45:37;28.08;;;11.73;;
66437;SDS011;54537;47.972;11.662;2023-04-19T05:48:04;29.77;;;11.13;;
66437;SDS011;54537;47.972;11.662;2023-04-19T05:50:31;27.13;;;11.32;;
66437;SDS011;54537;47.972;11.662;2023-04-19T05:52:57;31.00;;;12.43;;
66437;SDS011;54537;47.972;11.662;2023-04-19T05:55:24;30.38;;;12.20;;
66437;SDS011;54537;47.972;11.662;2023-04-19T05:57:51;30.65;;;11.10;;
66437;SDS011;54537;47.972;11.662;2023-04-19T06:00:18;29.38;;;11.80;;
66437;SDS011;54537;47.972;11.662;2023-04-19T06:02:45;29.33;;;12.23;;
66437;SDS011;54537;47.972;11.662;2023-04-19T06:05:11;27.67;;;11.98;;
66437;SDS011;54537;47.972;11.662;2023-04-19T06:07:38;30.05;;;11.45;;
66437;SDS011;54537;47.972;11.662;2023-04-19T06:10:05;38.25;;;13.05;;
66437;SDS011;54537;47.972;11.662;2023-04-19T06:12:32;38.20;;;14.52;;
66437;SDS011;54537;47.972;11.662;2023-04-19T06:15:00;38.90;;;15.43;;
66437;SDS011;54537;47.972;11.662;2023-04-19T06:17:27;37.90;;;15.75;;
66437;SDS011;54537;47.972;11.662;2023-04-19T06:19:53;36.83;;;13.85;;
66437;SDS011;54537;47.972;11.662;2023-04-19T06:22:20;39.22;;;15.55;;
66437;SDS011;54537;47.972;11.662;2023-04-19T06:24:47;43.55;;;16.45;;
66437;SDS011;54537;47.972;11.662;2023-04-19T06:27:13;41.10;;;15.50;;
66437;SDS011;54537;47.972;11.662;2023-04-19T06:29:41;43.08;;;15.77;;
66437;SDS011;54537;47.972;11.662;2023-04-19T06:32:09;47.67;;;17.35;;
66437;SDS011;54537;47.972;11.662;2023-04-19T06:34:36;46.83;;;17.45;;
66437;SDS011;54537;47.972;11.662;2023-04-19T06:37:02;42.13;;;16.20;;
66437;SDS011;54537;47.972;11.662;2023-04-19T06:39:29;48.85;;;16.55;;
66437;SDS011;54537;47.972;11.662;2023-04-19T06:41:55;48.13;;;19.02;;
66437;SDS011;54537;47.972;11.662;2023-04-19T06:44:23;48.72;;;17.80;;
66437;SDS011;54537;47.972;11.662;2023-04-19T06:46:49;53.38;;;18.02;;
66437;SDS011;54537;47.972;11.662;2023-04-19T06:49:17;50.75;;;19.52;;
66437;SDS011;54537;47.972;11.662;2023-04-19T06:51:44;53.60;;;19.55;;
66437;SDS011;54537;47.972;11.662;2023-04-19T06:54:10;56.45;;;19.33;;
66437;SDS011;54537;47.972;11.662;2023-04-19T06:56:41;54.60;;;19.77;;
66437;SDS011;54537;47.972;11.662;2023-04-19T06:59:09;56.00;;;19.88;;
66437;SDS011;54537;47.972;11.662;2023-04-19T07:01:36;55.55;;;20.60;;
66437;SDS011;54537;47.972;11.662;2023-04-19T07:04:03;58.17;;;19.45;;
66437;SDS011;54537;47.972;11.662;2023-04-19T07:06:32;53.35;;;20.30;;
66437;SDS011;54537;47.972;11.662;2023-04-19T07:08:59;56.85;;;19.67;;
66437;SDS011;54537;47.972;11.662;2023-04-19T07:11:25;56.75;;;19.95;;
66437;SDS011;54537;47.972;11.662;2023-04-19T07:13:52;58.38;;;19.52;;
66437;SDS011;54537;47.972;11.662;2023-04-19T07:16:18;54.00;;;18.80;;
66437;SDS011;54537;47.972;11.662;2023-04-19T07:18:45;48.47;;;16.55;;
66437;SDS011;54537;47.972;11.662;2023-04-19T07:21:11;49.67;;;18.38;;
66437;SDS011;54537;47.972;11.662;2023-04-19T07:23:39;57.80;;;20.13;;
66437;SDS011;54537;47.972;11.662;2023-04-19T07:26:06;53.10;;;18.00;;
66437;SDS011;54537;47.972;11.662;2023-04-19T07:28:33;49.70;;;18.33;;
66437;SDS011;54537;47.972;11.662;2023-04-19T07:30:59;48.55;;;18.00;;
66437;SDS011;54537;47.972;11.662;2023-04-19T07:33:26;45.35;;;17.20;;
66437;SDS011;54537;47.972;11.662;2023-04-19T07:35:53;49.75;;;18.17;;
66437;SDS011;54537;47.972;11.662;2023-04-19T07:38:20;54.88;;;18.75;;
66437;SDS011;54537;47.972;11.662;2023-04-19T07:40:48;52.20;;;18.15;;
66437;SDS011;54537;47.972;11.662;2023-04-19T07:43:15;50.13;;;17.65;;
66437;SDS011;54537;47.972;11.662;2023-04-19T07:45:41;48.13;;;17.63;;
66437;SDS011;54537;47.972;11.662;2023-04-19T07:48:08;43.75;;;17.50;;
66437;SDS011;54537;47.972;11.662;2023-04-19T07:50:35;50.83;;;17.13;;
66437;SDS011;54537;47.972;11.662;2023-04-19T07:53:02;49.92;;;18.45;;
66437;SDS011;54537;47.972;11.662;2023-04-19T07:55:28;53.85;;;17.40;;
66437;SDS011;54537;47.972;11.662;2023-04-19T07:57:56;43.55;;;17.10;;
66437;SDS011;54537;47.972;11.662;2023-04-19T08:00:23;44.55;;;16.33;;
66437;SDS011;54537;47.972;11.662;2023-04-19T08:02:49;45.30;;;16.35;;
66437;SDS011;54537;47.972;11.662;2023-04-19T08:05:16;44.97;;;17.40;;
66437;SDS011;54537;47.972;11.662;2023-04-19T08:07:43;45.78;;;16.70;;
66437;SDS011;54537;47.972;11.662;2023-04-19T08:10:10;45.08;;;17.02;;
66437;SDS011;54537;47.972;11.662;2023-04-19T08:12:37;43.70;;;15.63;;
66437;SDS011;54537;47.972;11.662;2023-04-19T08:15:06;41.40;;;15.32;;
66437;SDS011;54537;47.972;11.662;2023-04-19T08:17:33;42.83;;;16.30;;
66437;SDS011;54537;47.972;11.662;2023-04-19T08:20:00;46.33;;;16.27;;
66437;SDS011;54537;47.972;11.662;2023-04-19T08:22:26;42.88;;;15.50;;
66437;SDS011;54537;47.972;11.662;2023-04-19T08:24:53;43.13;;;16.42;;
66437;SDS011;54537;47.972;11.662;2023-04-19T08:27:20;44.92;;;17.05;;
66437;SDS011;54537;47.972;11.662;2023-04-19T08:29:46;45.92;;;16.48;;
66437;SDS011;54537;47.972;11.662;2023-04-19T08:32:14;43.28;;;16.83;;
66437;SDS011;54537;47.972;11.662;2023-04-19T08:34:41;41.83;;;15.20;;
66437;SDS011;54537;47.972;11.662;2023-04-19T08:37:07;45.42;;;16.17;;
66437;SDS011;54537;47.972;11.662;2023-04-19T08:39:34;37.47;;;14.85;;
66437;SDS011;54537;47.972;11.662;2023-04-19T08:42:02;41.35;;;16.45;;
66437;SDS011;54537;47.972;11.662;2023-04-19T08:44:30;42.17;;;15.30;;
66437;SDS011;54537;47.972;11.662;2023-04-19T08:46:56;33.40;;;13.57;;
66437;SDS011;54537;47.972;11.662;2023-04-19T08:49:25;35.65;;;14.18;;
66437;SDS011;54537;47.972;11.662;2023-04-19T08:51:53;33.83;;;14.02;;
66437;SDS011;54537;47.972;11.662;2023-04-19T08:54:20;29.63;;;13.38;;
66437;SDS011;54537;47.972;11.662;2023-04-19T08:56:47;33.90;;;12.88;;
66437;SDS011;54537;47.972;11.662;2023-04-19T08:59:13;35.13;;;12.77;;
66437;SDS011;54537;47.972;11.662;2023-04-19T09:01:40;28.08;;;12.18;;
66437;SDS011;54537;47.972;11.662;2023-04-19T09:04:06;32.47;;;12.65;;
66437;SDS011;54537;47.972;11.662;2023-04-19T09:06:37;28.00;;;11.90;;
66437;SDS011;54537;47.972;11.662;2023-04-19T09:09:15;26.80;;;10.93;;
66437;SDS011;54537;47.972;11.662;2023-04-19T09:11:42;29.50;;;11.77;;
66437;SDS011;54537;47.972;11.662;2023-04-19T09:14:09;29.63;;;10.88;;
66437;SDS011;54537;47.972;11.662;2023-04-19T09:16:36;31.00;;;12.38;;
66437;SDS011;54537;47.972;11.662;2023-04-19T09:19:03;26.60;;;10.88;;
66437;SDS011;54537;47.972;11.662;2023-04-19T09:21:31;31.38;;;12.25;;
66437;SDS011;54537;47.972;11.662;2023-04-19T09:24:00;25.38;;;10.25;;
66437;SDS011;54537;47.972;11.662;2023-04-19T09:26:27;22.52;;;10.43;;
66437;SDS011;54537;47.972;11.662;2023-04-19T09:28:54;25.00;;;11.10;;
66437;SDS011;54537;47.972;11.662;2023-04-19T09:31:22;24.50;;;10.35;;
66437;SDS011;54537;47.972;11.662;2023-04-19T09:33:48;27.80;;;10.52;;
66437;SDS011;54537;47.972;11.662;2023-04-19T09:36:25;27.83;;;11.05;;
66437;SDS011;54537;47.972;11.662;2023-04-19T09:38:52;28.10;;;12.13;;
66437;SDS011;54537;47.972;11.662;2023-04-19T09:41:20;28.60;;;11.90;;
66437;SDS011;54537;47.972;11.662;2023-04-19T09:43:46;31.38;;;13.23;;
66437;SDS011;54537;47.972;11.662;2023-04-19T09:46:28;35.72;;;12.77;;
66437;SDS011;54537;47.972;11.662;2023-04-19T09:48:58;37.80;;;15.63;;
66437;SDS011;54537;47.972;11.662;2023-04-19T09:51:40;36.78;;;13.73;;
66437;SDS011;54537;47.972;11.662;2023-04-19T09:54:08;39.80;;;15.40;;
66437;SDS011;54537;47.972;11.662;2023-04-19T09:56:36;37.33;;;14.52;;
66437;SDS011;54537;47.972;11.662;2023-04-19T09:59:03;35.65;;;14.93;;
66437;SDS011;54537;47.972;11.662;2023-04-19T10:01:30;36.55;;;15.18;;
66437;SDS011;54537;47.972;11.662;2023-04-19T10:04:00;38.08;;;14.75;;
66437;SDS011;54537;47.972;11.662;2023-04-19T10:06:29;34.20;;;14.07;;
66437;SDS011;54537;47.972;11.662;2023-04-19T10:08:56;36.33;;;13.93;;
66437;SDS011;54537;47.972;11.662;2023-04-19T10:11:28;35.03;;;14.65;;
66437;SDS011;54537;47.972;11.662;2023-04-19T10:14:01;34.60;;;13.35;;
66437;SDS011;54537;47.972;11.662;2023-04-19T10:16:29;39.78;;;14.27;;
66437;SDS011;54537;47.972;11.662;2023-04-19T10:18:57;32.38;;;13.65;;
66437;SDS011;54537;47.972;11.662;2023-04-19T10:21:24;31.30;;;12.77;;
66437;SDS011;54537;47.972;11.662;2023-04-19T10:23:52;30.30;;;12.68;;
66437;SDS011;54537;47.972;11.662;2023-04-19T10:26:19;33.22;;;13.10;;
66437;SDS011;54537;47.972;11.662;2023-04-19T10:28:46;30.75;;;14.02;;
66437;SDS011;54537;47.972;11.662;2023-04-19T10:31:14;34.58;;;13.00;;
66437;SDS011;54537;47.972;11.662;2023-04-19T10:33:40;34.95;;;13.38;;
66437;SDS011;54537;47.972;11.662;2023-04-19T10:36:07;38.80;;;14.63;;
66437;SDS011;54537;47.972;11.662;2023-04-19T10:38:36;34.67;;;13.20;;
66437;SDS011;54537;47.972;11.662;2023-04-19T10:41:03;38.53;;;15.10;;
66437;SDS011;54537;47.972;11.662;2023-04-19T10:43:35;32.65;;;12.27;;
66437;SDS011;54537;47.972;11.662;2023-04-19T10:46:05;29.48;;;12.77;;
66437;SDS011;54537;47.972;11.662;2023-04-19T10:48:37;35.47;;;14.82;;
66437;SDS011;54537;47.972;11.662;2023-04-19T10:51:10;34.10;;;13.45;;
66437;SDS011;54537;47.972;11.662;2023-04-19T10:53:42;34.90;;;13.70;;
66437;SDS011;54537;47.972;11.662;2023-04-19T10:56:13;36.25;;;13.60;;
66437;SDS011;54537;47.972;11.662;2023-04-19T11:01:47;32.95;;;12.10;;
66437;SDS011;54537;47.972;11.662;2023-04-19T11:04:23;29.40;;;11.95;;
66437;SDS011;54537;47.972;11.662;2023-04-19T11:07:12;28.00;;;12.13;;
66437;SDS011;54537;47.972;11.662;2023-04-19T11:09:39;28.67;;;12.68;;
66437;SDS011;54537;47.972;11.662;2023-04-19T11:12:09;28.83;;;12.30;;
66437;SDS011;54537;47.972;11.662;2023-04-19T11:14:38;28.00;;;12.88;;
66437;SDS011;54537;47.972;11.662;2023-04-19T11:17:13;31.75;;;12.85;;
66437;SDS011;54537;47.972;11.662;2023-04-19T11:19:41;28.58;;;12.10;;
66437;SDS011;54537;47.972;11.662;2023-04-19T11:22:08;29.83;;;12.88;;
66437;SDS011;54537;47.972;11.662;2023-04-19T11:24:36;29.00;;;11.77;;
66437;SDS011;54537;47.972;11.662;2023-04-19T11:27:06;30.25;;;13.18;;
66437;SDS011;54537;47.972;11.662;2023-04-19T11:29:33;29.90;;;12.63;;
66437;SDS011;54537;47.972;11.662;2023-04-19T11:31:59;30.63;;;11.80;;
66437;SDS011;54537;47.972;11.662;2023-04-19T11:34:26;30.08;;;11.82;;
66437;SDS011;54537;47.972;11.662;2023-04-19T11:36:52;30.10;;;11.40;;
66437;SDS011;54537;47.972;11.662;2023-04-19T11:39:19;25.10;;;11.40;;
66437;SDS011;54537;47.972;11.662;2023-04-19T11:41:47;29.70;;;11.77;;
66437;SDS011;54537;47.972;11.662;2023-04-19T11:44:14;25.55;;;11.70;;
66437;SDS011;54537;47.972;11.662;2023-04-19T11:46:47;26.63;;;12.05;;
66437;SDS011;54537;47.972;11.662;2023-04-19T11:49:27;24.00;;;10.75;;
66437;SDS011;54537;47.972;11.662;2023-04-19T11:51:55;29.52;;;12.52;;
66437;SDS011;54537;47.972;11.662;2023-04-19T11:54:22;25.92;;;10.95;;
66437;SDS011;54537;47.972;11.662;2023-04-19T11:57:00;25.25;;;10.38;;
66437;SDS011;54537;47.972;11.662;2023-04-19T11:59:28;29.40;;;11.93;;
66437;SDS011;54537;47.972;11.662;2023-04-19T12:01:55;22.42;;;10.60;;
66437;SDS011;54537;47.972;11.662;2023-04-19T12:04:22;26.90;;;12.20;;
66437;SDS011;54537;47.972;11.662;2023-04-19T12:06:55;25.02;;;10.90;;
66437;SDS011;54537;47.972;11.662;2023-04-19T12:09:22;24.52;;;10.95;;
66437;SDS011;54537;47.972;11.662;2023-04-19T12:11:49;29.58;;;11.65;;
66437;SDS011;54537;47.972;11.662;2023-04-19T12:14:17;30.17;;;12.18;;
66437;SDS011;54537;47.972;11.662;2023-04-19T12:16:53;28.20;;;12.63;;
66437;SDS011;54537;47.972;11.662;2023-04-19T12:19:33;31.90;;;12.68;;
66437;SDS011;54537;47.972;11.662;2023-04-19T12:22:06;35.83;;;14.07;;
66437;SDS011;54537;47.972;11.662;2023-04-19T12:24:33;31.60;;;12.55;;
66437;SDS011;54537;47.972;11.662;2023-04-19T12:26:59;32.10;;;13.30;;
66437;SDS011;54537;47.972;11.662;2023-04-19T12:29:27;33.38;;;12.82;;
66437;SDS011;54537;47.972;11.662;2023-04-19T12:31:54;32.97;;;13.95;;
66437;SDS011;54537;47.972;11.662;2023-04-19T12:34:20;30.02;;;12.75;;
66437;SDS011;54537;47.972;11.662;2023-04-19T12:36:47;28.55;;;12.85;;
66437;SDS011;54537;47.972;11.662;2023-04-19T12:39:14;30.20;;;12.07;;
66437;SDS011;54537;47.972;11.662;2023-04-19T12:41:40;30.88;;;12.60;;
66437;SDS011;54537;47.972;11.662;2023-04-19T12:44:07;28.95;;;12.60;;
66437;SDS011;54537;47.972;11.662;2023-04-19T12:46:34;26.98;;;11.77;;
66437;SDS011;54537;47.972;11.662;2023-04-19T12:49:01;31.45;;;13.35;;
66437;SDS011;54537;47.972;11.662;2023-04-19T12:51:28;28.70;;;12.23;;
66437;SDS011;54537;47.972;11.662;2023-04-19T12:53:55;32.97;;;13.80;;
66437;SDS011;54537;47.972;11.662;2023-04-19T12:56:22;31.67;;;13.50;;
66437;SDS011;54537;47.972;11.662;2023-04-19T12:58:48;30.88;;;12.75;;
66437;SDS011;54537;47.972;11.662;2023-04-19T13:01:15;32.75;;;13.10;;
66437;SDS011;54537;47.972;11.662;2023-04-19T13:03:43;32.20;;;12.32;;
66437;SDS011;54537;47.972;11.662;2023-04-19T13:06:10;30.92;;;12.48;;
66437;SDS011;54537;47.972;11.662;2023-04-19T13:08:38;33.45;;;12.70;;
66437;SDS011;54537;47.972;11.662;2023-04-19T13:11:05;29.80;;;12.82;;
66437;SDS011;54537;47.972;11.662;2023-04-19T13:13:32;20.33;;;8.23;;
66437;SDS011;54537;47.972;11.662;2023-04-19T13:15:59;17.52;;;7.55;;
66437;SDS011;54537;47.972;11.662;2023-04-19T13:18:26;15.82;;;6.90;;
66437;SDS011;54537;47.972;11.662;2023-04-19T13:20:53;17.67;;;7.45;;
66437;SDS011;54537;47.972;11.662;2023-04-19T13:23:20;14.98;;;6.55;;
66437;SDS011;54537;47.972;11.662;2023-04-19T13:25:47;13.85;;;6.13;;
66437;SDS011;54537;47.972;11.662;2023-04-19T13:28:13;16.17;;;5.88;;
66437;SDS011;54537;47.972;11.662;2023-04-19T13:30:39;15.05;;;6.90;;
66437;SDS011;54537;47.972;11.662;2023-04-19T13:33:07;18.58;;;6.47;;
66437;SDS011;54537;47.972;11.662;2023-04-19T13:35:34;12.82;;;6.32;;
66437;SDS011;54537;47.972;11.662;2023-04-19T13:38:01;12.65;;;5.32;;
66437;SDS011;54537;47.972;11.662;2023-04-19T13:40:28;18.55;;;7.18;;
66437;SDS011;54537;47.972;11.662;2023-04-19T13:42:54;16.63;;;8.27;;
66437;SDS011;54537;47.972;11.662;2023-04-19T13:45:21;18.15;;;8.18;;
66437;SDS011;54537;47.972;11.662;2023-04-19T13:47:47;19.00;;;7.63;;
66437;SDS011;54537;47.972;11.662;2023-04-19T13:50:14;16.88;;;7.28;;
66437;SDS011;54537;47.972;11.662;2023-04-19T13:52:40;16.02;;;6.85;;
66437;SDS011;54537;47.972;11.662;2023-04-19T13:55:08;18.55;;;7.65;;
66437;SDS011;54537;47.972;11.662;2023-04-19T13:57:35;18.45;;;8.60;;
66437;SDS011;54537;47.972;11.662;2023-04-19T14:00:01;20.02;;;8.05;;
66437;SDS011;54537;47.972;11.662;2023-04-19T14:02:28;18.08;;;7.72;;
66437;SDS011;54537;47.972;11.662;2023-04-19T14:04:55;17.77;;;8.07;;
66437;SDS011;54537;47.972;11.662;2023-04-19T14:07:23;21.27;;;8.75;;
66437;SDS011;54537;47.972;11.662;2023-04-19T14:09:49;17.45;;;7.63;;
66437;SDS011;54537;47.972;11.662;2023-04-19T14:12:17;18.80;;;8.43;;
66437;SDS011;54537;47.972;11.662;2023-04-19T14:14:43;23.42;;;9.60;;
66437;SDS011;54537;47.972;11.662;2023-04-19T14:17:10;20.65;;;8.00;;